sensor_id;sensor_type;location;lat;lon;timestamp;temperature;humidity
8332;DHT22;4203;48.144;14.118;2023-07-24T00:00:22;17.40;99.90
8332;DHT22;4203;48.144;14.118;2023-07-24T00:02:50;17.50;99.90
8332;DHT22;4203;48.144;14.118;2023-07-24T00:05:20;17.40;99.90
8332;DHT22;4203;48.144;14.118;2023-07-24T00:07:49;17.40;99.90
8332;DHT22;4203;48.144;14.118;2023-07-24T00:10:16;17.40;99.90
8332;DHT22;4203;48.144;14.118;2023-07-24T00:12:43;17.30;99.90
8332;DHT22;4203;48.144;14.118;2023-07-24T00:15:11;17.30;99.90
8332;DHT22;4203;48.144;14.118;2023-07-24T00:17:38;17.20;99.90
8332;DHT22;4203;48.144;14.118;2023-07-24T00:20:06;17.30;99.90
8332;DHT22;4203;48.144;14.118;2023-07-24T00:22:34;17.30;99.90
8332;DHT22;4203;48.144;14.118;2023-07-24T00:25:03;17.30;99.90
8332;DHT22;4203;48.144;14.118;2023-07-24T00:27:31;17.20;99.90
8332;DHT22;4203;48.144;14.118;2023-07-24T00:29:58;17.20;99.90
8332;DHT22;4203;48.144;14.118;2023-07-24T00:32:26;17.10;99.90
8332;DHT22;4203;48.144;14.118;2023-07-24T00:34:55;17.00;99.90
8332;DHT22;4203;48.144;14.118;2023-07-24T00:37:22;17.00;99.90
8332;DHT22;4203;48.144;14.118;2023-07-24T00:39:49;17.00;99.90
8332;DHT22;4203;48.144;14.118;2023-07-24T00:42:18;16.90;99.90
8332;DHT22;4203;48.144;14.118;2023-07-24T00:44:45;16.90;99.90
8332;DHT22;4203;48.144;14.118;2023-07-24T00:47:13;16.80;99.90
8332;DHT22;4203;48.144;14.118;2023-07-24T00:49:40;16.80;99.90
8332;DHT22;4203;48.144;14.118;2023-07-24T00:52:08;16.80;99.90
8332;DHT22;4203;48.144;14.118;2023-07-24T00:54:35;16.80;99.90
8332;DHT22;4203;48.144;14.118;2023-07-24T00:57:04;16.70;99.90
8332;DHT22;4203;48.144;14.118;2023-07-24T00:59:33;16.70;99.90
8332;DHT22;4203;48.144;14.118;2023-07-24T01:02:01;16.60;99.90
8332;DHT22;4203;48.144;14.118;2023-07-24T01:04:28;16.60;99.90
8332;DHT22;4203;48.144;14.118;2023-07-24T01:06:55;16.60;99.90
8332;DHT22;4203;48.144;14.118;2023-07-24T01:09:23;16.50;99.90
8332;DHT22;4203;48.144;14.118;2023-07-24T01:11:55;16.50;99.90
8332;DHT22;4203;48.144;14.118;2023-07-24T01:14:29;16.50;99.90
8332;DHT22;4203;48.144;14.118;2023-07-24T01:17:00;16.50;99.90
8332;DHT22;4203;48.144;14.118;2023-07-24T01:19:36;16.50;99.90
8332;DHT22;4203;48.144;14.118;2023-07-24T01:22:14;16.50;99.90
8332;DHT22;4203;48.144;14.118;2023-07-24T01:24:52;16.50;99.90
8332;DHT22;4203;48.144;14.118;2023-07-24T01:27:26;16.40;99.90
8332;DHT22;4203;48.144;14.118;2023-07-24T01:29:53;16.40;99.90
8332;DHT22;4203;48.144;14.118;2023-07-24T01:32:20;16.40;99.90
8332;DHT22;4203;48.144;14.118;2023-07-24T01:34:48;16.30;99.90
8332;DHT22;4203;48.144;14.118;2023-07-24T01:37:16;16.30;99.90
8332;DHT22;4203;48.144;14.118;2023-07-24T01:39:45;16.30;99.90
8332;DHT22;4203;48.144;14.118;2023-07-24T01:42:13;16.20;99.90
8332;DHT22;4203;48.144;14.118;2023-07-24T01:44:42;16.20;99.90
8332;DHT22;4203;48.144;14.118;2023-07-24T01:47:09;16.20;99.90
8332;DHT22;4203;48.144;14.118;2023-07-24T01:49:37;16.10;99.90
8332;DHT22;4203;48.144;14.118;2023-07-24T01:52:05;16.00;99.90
8332;DHT22;4203;48.144;14.118;2023-07-24T01:54:32;16.00;99.90
8332;DHT22;4203;48.144;14.118;2023-07-24T01:56:59;16.00;99.90
8332;DHT22;4203;48.144;14.118;2023-07-24T01:59:27;15.90;99.90
8332;DHT22;4203;48.144;14.118;2023-07-24T02:01:55;15.90;99.90
8332;DHT22;4203;48.144;14.118;2023-07-24T02:04:23;15.80;99.90
8332;DHT22;4203;48.144;14.118;2023-07-24T02:06:50;15.80;99.90
8332;DHT22;4203;48.144;14.118;2023-07-24T02:09:18;15.70;99.90
8332;DHT22;4203;48.144;14.118;2023-07-24T02:11:45;15.70;99.90
8332;DHT22;4203;48.144;14.118;2023-07-24T02:14:14;15.70;99.90
8332;DHT22;4203;48.144;14.118;2023-07-24T02:16:42;15.70;99.90
8332;DHT22;4203;48.144;14.118;2023-07-24T02:19:11;15.60;99.90
8332;DHT22;4203;48.144;14.118;2023-07-24T02:21:38;15.60;99.90
8332;DHT22;4203;48.144;14.118;2023-07-24T02:24:06;15.60;99.90
8332;DHT22;4203;48.144;14.118;2023-07-24T02:26:33;15.60;99.90
8332;DHT22;4203;48.144;14.118;2023-07-24T02:29:01;15.60;99.90
8332;DHT22;4203;48.144;14.118;2023-07-24T02:31:28;15.50;99.90
8332;DHT22;4203;48.144;14.118;2023-07-24T02:33:55;15.40;99.90
8332;DHT22;4203;48.144;14.118;2023-07-24T02:36:24;15.40;99.90
8332;DHT22;4203;48.144;14.118;2023-07-24T02:38:51;15.50;99.90
8332;DHT22;4203;48.144;14.118;2023-07-24T02:41:19;15.50;99.90
8332;DHT22;4203;48.144;14.118;2023-07-24T02:43:46;15.30;99.90
8332;DHT22;4203;48.144;14.118;2023-07-24T02:46:13;15.30;99.90
8332;DHT22;4203;48.144;14.118;2023-07-24T02:48:40;15.20;99.90
8332;DHT22;4203;48.144;14.118;2023-07-24T02:51:08;15.20;99.90
8332;DHT22;4203;48.144;14.118;2023-07-24T02:53:37;15.30;99.90
8332;DHT22;4203;48.144;14.118;2023-07-24T02:56:04;15.30;99.90
8332;DHT22;4203;48.144;14.118;2023-07-24T02:58:31;15.30;99.90
8332;DHT22;4203;48.144;14.118;2023-07-24T03:01:03;15.10;99.90
8332;DHT22;4203;48.144;14.118;2023-07-24T03:03:32;15.10;99.90
8332;DHT22;4203;48.144;14.118;2023-07-24T03:05:59;15.10;99.90
8332;DHT22;4203;48.144;14.118;2023-07-24T03:08:27;15.10;99.90
8332;DHT22;4203;48.144;14.118;2023-07-24T03:10:56;15.10;99.90
8332;DHT22;4203;48.144;14.118;2023-07-24T03:13:24;15.10;99.90
8332;DHT22;4203;48.144;14.118;2023-07-24T03:15:55;15.10;99.90
8332;DHT22;4203;48.144;14.118;2023-07-24T03:18:21;15.10;99.90
8332;DHT22;4203;48.144;14.118;2023-07-24T03:20:49;15.00;99.90
8332;DHT22;4203;48.144;14.118;2023-07-24T03:23:16;15.00;99.90
8332;DHT22;4203;48.144;14.118;2023-07-24T03:25:44;15.10;99.90
8332;DHT22;4203;48.144;14.118;2023-07-24T03:28:12;15.10;99.90
8332;DHT22;4203;48.144;14.118;2023-07-24T03:30:40;15.10;99.90
8332;DHT22;4203;48.144;14.118;2023-07-24T03:33:07;15.10;99.90
8332;DHT22;4203;48.144;14.118;2023-07-24T03:35:36;15.10;99.90
8332;DHT22;4203;48.144;14.118;2023-07-24T03:38:03;15.00;99.90
8332;DHT22;4203;48.144;14.118;2023-07-24T03:40:30;15.00;99.90
8332;DHT22;4203;48.144;14.118;2023-07-24T03:42:57;14.90;99.90
8332;DHT22;4203;48.144;14.118;2023-07-24T03:45:26;14.90;99.90
8332;DHT22;4203;48.144;14.118;2023-07-24T03:47:53;14.90;99.90
8332;DHT22;4203;48.144;14.118;2023-07-24T03:50:21;14.80;99.90
8332;DHT22;4203;48.144;14.118;2023-07-24T03:52:48;14.90;99.90
8332;DHT22;4203;48.144;14.118;2023-07-24T03:55:16;14.90;99.90
8332;DHT22;4203;48.144;14.118;2023-07-24T03:57:43;15.00;99.90
8332;DHT22;4203;48.144;14.118;2023-07-24T04:00:11;14.90;99.90
8332;DHT22;4203;48.144;14.118;2023-07-24T04:02:40;15.00;99.90
8332;DHT22;4203;48.144;14.118;2023-07-24T04:05:09;15.00;99.90
8332;DHT22;4203;48.144;14.118;2023-07-24T04:07:36;14.90;99.90
8332;DHT22;4203;48.144;14.118;2023-07-24T04:10:05;14.80;99.90
8332;DHT22;4203;48.144;14.118;2023-07-24T04:12:32;14.70;99.90
8332;DHT22;4203;48.144;14.118;2023-07-24T04:15:00;14.60;99.90
8332;DHT22;4203;48.144;14.118;2023-07-24T04:17:27;14.60;99.90
8332;DHT22;4203;48.144;14.118;2023-07-24T04:19:56;14.60;99.90
8332;DHT22;4203;48.144;14.118;2023-07-24T04:22:23;14.60;99.90
8332;DHT22;4203;48.144;14.118;2023-07-24T04:24:51;14.70;99.90
8332;DHT22;4203;48.144;14.118;2023-07-24T04:27:18;14.70;99.90
8332;DHT22;4203;48.144;14.118;2023-07-24T04:29:45;14.80;99.90
8332;DHT22;4203;48.144;14.118;2023-07-24T04:32:12;14.80;99.90
8332;DHT22;4203;48.144;14.118;2023-07-24T04:34:41;14.90;99.90
8332;DHT22;4203;48.144;14.118;2023-07-24T04:37:10;15.00;99.90
8332;DHT22;4203;48.144;14.118;2023-07-24T04:39:38;15.20;99.90
8332;DHT22;4203;48.144;14.118;2023-07-24T04:42:06;15.20;99.90
8332;DHT22;4203;48.144;14.118;2023-07-24T04:44:33;15.30;99.90
8332;DHT22;4203;48.144;14.118;2023-07-24T04:47:01;15.40;99.90
8332;DHT22;4203;48.144;14.118;2023-07-24T04:49:29;15.50;99.90
8332;DHT22;4203;48.144;14.118;2023-07-24T04:51:56;15.50;99.90
8332;DHT22;4203;48.144;14.118;2023-07-24T04:54:25;15.60;99.90
8332;DHT22;4203;48.144;14.118;2023-07-24T04:56:52;15.70;99.90
8332;DHT22;4203;48.144;14.118;2023-07-24T04:59:20;15.80;99.90
8332;DHT22;4203;48.144;14.118;2023-07-24T05:01:47;15.90;99.90
8332;DHT22;4203;48.144;14.118;2023-07-24T05:04:14;16.00;99.90
8332;DHT22;4203;48.144;14.118;2023-07-24T05:06:42;16.10;99.90
8332;DHT22;4203;48.144;14.118;2023-07-24T05:09:09;16.10;99.90
8332;DHT22;4203;48.144;14.118;2023-07-24T05:11:38;16.20;99.90
8332;DHT22;4203;48.144;14.118;2023-07-24T05:14:05;16.30;99.90
8332;DHT22;4203;48.144;14.118;2023-07-24T05:16:32;16.40;99.90
8332;DHT22;4203;48.144;14.118;2023-07-24T05:18:59;16.40;99.90
8332;DHT22;4203;48.144;14.118;2023-07-24T05:21:27;16.40;99.90
8332;DHT22;4203;48.144;14.118;2023-07-24T05:23:54;16.50;99.90
8332;DHT22;4203;48.144;14.118;2023-07-24T05:26:21;16.60;99.90
8332;DHT22;4203;48.144;14.118;2023-07-24T05:28:50;16.70;99.90
8332;DHT22;4203;48.144;14.118;2023-07-24T05:31:18;16.80;99.90
8332;DHT22;4203;48.144;14.118;2023-07-24T05:33:46;16.90;99.90
8332;DHT22;4203;48.144;14.118;2023-07-24T05:36:13;17.00;99.90
8332;DHT22;4203;48.144;14.118;2023-07-24T05:38:40;17.10;99.90
8332;DHT22;4203;48.144;14.118;2023-07-24T05:41:07;17.30;99.90
8332;DHT22;4203;48.144;14.118;2023-07-24T05:43:35;17.40;99.90
8332;DHT22;4203;48.144;14.118;2023-07-24T05:46:03;17.60;99.90
8332;DHT22;4203;48.144;14.118;2023-07-24T05:48:31;17.80;99.90
8332;DHT22;4203;48.144;14.118;2023-07-24T05:50:58;18.00;99.90
8332;DHT22;4203;48.144;14.118;2023-07-24T05:53:25;18.10;99.90
8332;DHT22;4203;48.144;14.118;2023-07-24T05:56:00;18.20;99.90
8332;DHT22;4203;48.144;14.118;2023-07-24T05:58:27;18.30;99.90
8332;DHT22;4203;48.144;14.118;2023-07-24T06:00:55;18.30;99.90
8332;DHT22;4203;48.144;14.118;2023-07-24T06:03:24;18.40;99.90
8332;DHT22;4203;48.144;14.118;2023-07-24T06:05:52;18.40;99.90
8332;DHT22;4203;48.144;14.118;2023-07-24T06:08:19;18.70;99.90
8332;DHT22;4203;48.144;14.118;2023-07-24T06:10:47;18.90;99.90
8332;DHT22;4203;48.144;14.118;2023-07-24T06:13:15;19.20;99.90
8332;DHT22;4203;48.144;14.118;2023-07-24T06:15:42;19.60;99.90
8332;DHT22;4203;48.144;14.118;2023-07-24T06:18:10;19.80;99.90
8332;DHT22;4203;48.144;14.118;2023-07-24T06:20:39;19.90;99.90
8332;DHT22;4203;48.144;14.118;2023-07-24T06:23:06;20.00;99.90
8332;DHT22;4203;48.144;14.118;2023-07-24T06:25:33;20.00;99.90
8332;DHT22;4203;48.144;14.118;2023-07-24T06:28:00;20.10;99.90
8332;DHT22;4203;48.144;14.118;2023-07-24T06:30:28;20.10;99.90
8332;DHT22;4203;48.144;14.118;2023-07-24T06:32:55;20.30;99.90
8332;DHT22;4203;48.144;14.118;2023-07-24T06:35:22;20.70;99.90
8332;DHT22;4203;48.144;14.118;2023-07-24T06:37:51;21.20;99.90
8332;DHT22;4203;48.144;14.118;2023-07-24T06:40:18;21.70;99.90
8332;DHT22;4203;48.144;14.118;2023-07-24T06:42:45;22.10;99.90
8332;DHT22;4203;48.144;14.118;2023-07-24T06:45:13;22.20;99.90
8332;DHT22;4203;48.144;14.118;2023-07-24T06:47:40;22.20;99.90
8332;DHT22;4203;48.144;14.118;2023-07-24T06:50:08;22.20;99.90
8332;DHT22;4203;48.144;14.118;2023-07-24T06:52:35;22.10;99.90
8332;DHT22;4203;48.144;14.118;2023-07-24T06:55:05;22.20;99.90
8332;DHT22;4203;48.144;14.118;2023-07-24T06:57:32;22.40;99.90
8332;DHT22;4203;48.144;14.118;2023-07-24T06:59:59;22.70;99.90
8332;DHT22;4203;48.144;14.118;2023-07-24T07:02:26;22.90;99.90
8332;DHT22;4203;48.144;14.118;2023-07-24T07:04:55;23.00;99.90
8332;DHT22;4203;48.144;14.118;2023-07-24T07:07:22;23.00;99.90
8332;DHT22;4203;48.144;14.118;2023-07-24T07:09:49;22.90;99.90
8332;DHT22;4203;48.144;14.118;2023-07-24T07:12:18;22.90;99.90
8332;DHT22;4203;48.144;14.118;2023-07-24T07:14:46;23.00;99.90
8332;DHT22;4203;48.144;14.118;2023-07-24T07:17:13;23.10;99.90
8332;DHT22;4203;48.144;14.118;2023-07-24T07:19:41;23.40;99.90
8332;DHT22;4203;48.144;14.118;2023-07-24T07:22:08;23.60;99.90
8332;DHT22;4203;48.144;14.118;2023-07-24T07:24:35;24.00;99.90
8332;DHT22;4203;48.144;14.118;2023-07-24T07:27:03;24.10;99.90
8332;DHT22;4203;48.144;14.118;2023-07-24T07:29:31;24.50;99.90
8332;DHT22;4203;48.144;14.118;2023-07-24T07:31:59;24.80;99.90
8332;DHT22;4203;48.144;14.118;2023-07-24T07:34:26;25.00;99.90
8332;DHT22;4203;48.144;14.118;2023-07-24T07:36:53;25.10;99.90
8332;DHT22;4203;48.144;14.118;2023-07-24T07:39:21;25.20;99.90
8332;DHT22;4203;48.144;14.118;2023-07-24T07:41:48;25.40;99.90
8332;DHT22;4203;48.144;14.118;2023-07-24T07:44:15;25.80;99.90
8332;DHT22;4203;48.144;14.118;2023-07-24T07:46:44;26.00;99.90
8332;DHT22;4203;48.144;14.118;2023-07-24T07:49:11;26.30;99.90
8332;DHT22;4203;48.144;14.118;2023-07-24T07:51:38;26.70;99.90
8332;DHT22;4203;48.144;14.118;2023-07-24T07:54:06;27.00;99.90
8332;DHT22;4203;48.144;14.118;2023-07-24T07:56:33;27.20;99.90
8332;DHT22;4203;48.144;14.118;2023-07-24T07:59:00;27.30;99.90
8332;DHT22;4203;48.144;14.118;2023-07-24T08:01:27;27.40;99.90
8332;DHT22;4203;48.144;14.118;2023-07-24T08:03:56;27.10;99.90
8332;DHT22;4203;48.144;14.118;2023-07-24T08:06:23;27.10;99.90
8332;DHT22;4203;48.144;14.118;2023-07-24T08:08:50;27.30;99.90
8332;DHT22;4203;48.144;14.118;2023-07-24T08:11:18;27.10;99.90
8332;DHT22;4203;48.144;14.118;2023-07-24T08:13:45;27.30;99.90
8332;DHT22;4203;48.144;14.118;2023-07-24T08:16:13;27.70;99.90
8332;DHT22;4203;48.144;14.118;2023-07-24T08:18:45;28.10;99.90
8332;DHT22;4203;48.144;14.118;2023-07-24T08:21:18;28.30;99.90
8332;DHT22;4203;48.144;14.118;2023-07-24T08:23:45;28.50;99.90
8332;DHT22;4203;48.144;14.118;2023-07-24T08:26:12;28.50;99.90
8332;DHT22;4203;48.144;14.118;2023-07-24T08:28:40;28.60;99.90
8332;DHT22;4203;48.144;14.118;2023-07-24T08:31:08;28.40;99.90
8332;DHT22;4203;48.144;14.118;2023-07-24T08:33:35;28.30;99.90
8332;DHT22;4203;48.144;14.118;2023-07-24T08:36:04;28.40;99.90
8332;DHT22;4203;48.144;14.118;2023-07-24T08:38:36;28.70;99.90
8332;DHT22;4203;48.144;14.118;2023-07-24T08:41:04;29.40;99.90
8332;DHT22;4203;48.144;14.118;2023-07-24T08:43:33;29.90;99.90
8332;DHT22;4203;48.144;14.118;2023-07-24T08:46:01;29.80;99.90
8332;DHT22;4203;48.144;14.118;2023-07-24T08:48:30;29.80;99.90
8332;DHT22;4203;48.144;14.118;2023-07-24T08:51:01;29.80;99.90
8332;DHT22;4203;48.144;14.118;2023-07-24T08:53:29;30.00;99.90
8332;DHT22;4203;48.144;14.118;2023-07-24T08:55:59;30.10;99.90
8332;DHT22;4203;48.144;14.118;2023-07-24T08:58:27;30.20;99.90
8332;DHT22;4203;48.144;14.118;2023-07-24T09:00:56;30.20;99.90
8332;DHT22;4203;48.144;14.118;2023-07-24T09:03:23;30.30;99.90
8332;DHT22;4203;48.144;14.118;2023-07-24T09:05:51;30.50;99.90
8332;DHT22;4203;48.144;14.118;2023-07-24T09:08:39;30.60;99.90
8332;DHT22;4203;48.144;14.118;2023-07-24T09:11:14;30.80;99.90
8332;DHT22;4203;48.144;14.118;2023-07-24T09:13:48;30.90;99.90
8332;DHT22;4203;48.144;14.118;2023-07-24T09:16:22;31.40;99.90
8332;DHT22;4203;48.144;14.118;2023-07-24T09:18:53;31.20;99.90
8332;DHT22;4203;48.144;14.118;2023-07-24T09:21:29;30.90;99.90
8332;DHT22;4203;48.144;14.118;2023-07-24T09:24:08;30.90;99.90
8332;DHT22;4203;48.144;14.118;2023-07-24T09:26:47;30.90;99.90
8332;DHT22;4203;48.144;14.118;2023-07-24T09:29:14;30.70;99.90
8332;DHT22;4203;48.144;14.118;2023-07-24T09:31:41;30.50;99.90
8332;DHT22;4203;48.144;14.118;2023-07-24T09:34:14;30.30;99.90
8332;DHT22;4203;48.144;14.118;2023-07-24T09:36:42;30.30;99.90
8332;DHT22;4203;48.144;14.118;2023-07-24T09:39:10;30.20;99.90
8332;DHT22;4203;48.144;14.118;2023-07-24T09:41:39;30.20;99.90
8332;DHT22;4203;48.144;14.118;2023-07-24T09:44:07;30.40;99.90
8332;DHT22;4203;48.144;14.118;2023-07-24T09:46:35;30.60;99.90
8332;DHT22;4203;48.144;14.118;2023-07-24T09:49:02;30.80;99.90
8332;DHT22;4203;48.144;14.118;2023-07-24T09:51:30;30.80;99.90
8332;DHT22;4203;48.144;14.118;2023-07-24T09:54:04;30.80;99.90
8332;DHT22;4203;48.144;14.118;2023-07-24T09:56:33;30.70;99.90
8332;DHT22;4203;48.144;14.118;2023-07-24T09:59:02;30.80;99.90
8332;DHT22;4203;48.144;14.118;2023-07-24T10:01:31;31.10;99.90
8332;DHT22;4203;48.144;14.118;2023-07-24T10:03:59;31.40;99.90
8332;DHT22;4203;48.144;14.118;2023-07-24T10:06:28;31.70;99.90
8332;DHT22;4203;48.144;14.118;2023-07-24T10:08:57;32.00;99.90
8332;DHT22;4203;48.144;14.118;2023-07-24T10:11:26;32.50;99.90
8332;DHT22;4203;48.144;14.118;2023-07-24T10:13:54;33.10;99.90
8332;DHT22;4203;48.144;14.118;2023-07-24T10:16:22;33.50;99.90
8332;DHT22;4203;48.144;14.118;2023-07-24T10:18:50;33.90;99.90
8332;DHT22;4203;48.144;14.118;2023-07-24T10:21:17;34.20;99.90
8332;DHT22;4203;48.144;14.118;2023-07-24T10:23:45;34.30;99.90
8332;DHT22;4203;48.144;14.118;2023-07-24T10:26:13;34.30;99.90
8332;DHT22;4203;48.144;14.118;2023-07-24T10:28:41;34.40;99.90
8332;DHT22;4203;48.144;14.118;2023-07-24T10:31:19;34.40;99.90
8332;DHT22;4203;48.144;14.118;2023-07-24T10:33:48;34.10;99.90
8332;DHT22;4203;48.144;14.118;2023-07-24T10:36:17;33.60;99.90
8332;DHT22;4203;48.144;14.118;2023-07-24T10:38:46;33.30;99.90
8332;DHT22;4203;48.144;14.118;2023-07-24T10:41:14;33.20;99.90
8332;DHT22;4203;48.144;14.118;2023-07-24T10:43:42;33.10;99.90
8332;DHT22;4203;48.144;14.118;2023-07-24T10:46:10;33.20;99.90
8332;DHT22;4203;48.144;14.118;2023-07-24T10:48:39;33.40;99.90
8332;DHT22;4203;48.144;14.118;2023-07-24T10:51:10;33.40;99.90
8332;DHT22;4203;48.144;14.118;2023-07-24T10:53:42;33.40;99.90
8332;DHT22;4203;48.144;14.118;2023-07-24T10:56:09;33.30;99.90
8332;DHT22;4203;48.144;14.118;2023-07-24T10:58:37;33.10;99.90
8332;DHT22;4203;48.144;14.118;2023-07-24T11:01:04;32.70;99.90
8332;DHT22;4203;48.144;14.118;2023-07-24T11:03:32;32.50;99.90
8332;DHT22;4203;48.144;14.118;2023-07-24T11:05:59;32.20;99.90
8332;DHT22;4203;48.144;14.118;2023-07-24T11:08:28;31.90;99.90
8332;DHT22;4203;48.144;14.118;2023-07-24T11:10:57;31.80;99.90
8332;DHT22;4203;48.144;14.118;2023-07-24T11:13:28;31.90;99.90
8332;DHT22;4203;48.144;14.118;2023-07-24T11:15:55;32.10;99.90
8332;DHT22;4203;48.144;14.118;2023-07-24T11:18:23;32.60;99.90
8332;DHT22;4203;48.144;14.118;2023-07-24T11:20:54;33.20;99.90
8332;DHT22;4203;48.144;14.118;2023-07-24T11:23:22;33.60;99.90
8332;DHT22;4203;48.144;14.118;2023-07-24T11:25:52;33.90;99.90
8332;DHT22;4203;48.144;14.118;2023-07-24T11:28:20;34.00;99.90
8332;DHT22;4203;48.144;14.118;2023-07-24T11:30:48;34.30;99.90
8332;DHT22;4203;48.144;14.118;2023-07-24T11:33:18;34.40;98.80
8332;DHT22;4203;48.144;14.118;2023-07-24T11:35:46;34.70;99.90
8332;DHT22;4203;48.144;14.118;2023-07-24T11:38:14;34.90;99.90
8332;DHT22;4203;48.144;14.118;2023-07-24T11:40:47;35.10;98.50
8332;DHT22;4203;48.144;14.118;2023-07-24T11:43:20;35.10;98.90
8332;DHT22;4203;48.144;14.118;2023-07-24T11:45:49;35.10;98.20
8332;DHT22;4203;48.144;14.118;2023-07-24T11:48:18;34.90;99.70
8332;DHT22;4203;48.144;14.118;2023-07-24T11:50:46;34.80;99.40
8332;DHT22;4203;48.144;14.118;2023-07-24T11:53:22;34.70;97.60
8332;DHT22;4203;48.144;14.118;2023-07-24T11:55:50;34.20;98.40
8332;DHT22;4203;48.144;14.118;2023-07-24T11:58:19;33.80;96.40
8332;DHT22;4203;48.144;14.118;2023-07-24T12:00:48;33.30;96.20
8332;DHT22;4203;48.144;14.118;2023-07-24T12:03:19;32.90;99.00
8332;DHT22;4203;48.144;14.118;2023-07-24T12:05:46;32.70;99.50
8332;DHT22;4203;48.144;14.118;2023-07-24T12:08:14;32.60;97.30
8332;DHT22;4203;48.144;14.118;2023-07-24T12:10:43;32.40;97.40
8332;DHT22;4203;48.144;14.118;2023-07-24T12:13:10;32.20;97.20
8332;DHT22;4203;48.144;14.118;2023-07-24T12:15:39;31.90;98.00
8332;DHT22;4203;48.144;14.118;2023-07-24T12:18:06;31.80;98.40
8332;DHT22;4203;48.144;14.118;2023-07-24T12:20:34;31.70;98.80
8332;DHT22;4203;48.144;14.118;2023-07-24T12:23:01;31.80;99.90
8332;DHT22;4203;48.144;14.118;2023-07-24T12:25:30;32.00;99.60
8332;DHT22;4203;48.144;14.118;2023-07-24T12:27:57;32.10;99.30
8332;DHT22;4203;48.144;14.118;2023-07-24T12:30:25;32.20;99.50
8332;DHT22;4203;48.144;14.118;2023-07-24T12:32:53;32.40;99.60
8332;DHT22;4203;48.144;14.118;2023-07-24T12:35:21;32.60;99.90
8332;DHT22;4203;48.144;14.118;2023-07-24T12:37:48;32.80;99.50
8332;DHT22;4203;48.144;14.118;2023-07-24T12:40:15;32.90;97.60
8332;DHT22;4203;48.144;14.118;2023-07-24T12:42:42;33.10;98.70
8332;DHT22;4203;48.144;14.118;2023-07-24T12:45:12;33.40;98.70
8332;DHT22;4203;48.144;14.118;2023-07-24T12:47:40;33.40;97.80
8332;DHT22;4203;48.144;14.118;2023-07-24T12:50:09;33.10;93.90
8332;DHT22;4203;48.144;14.118;2023-07-24T12:52:36;33.00;93.90
8332;DHT22;4203;48.144;14.118;2023-07-24T12:55:04;33.10;95.00
8332;DHT22;4203;48.144;14.118;2023-07-24T12:57:32;33.10;96.00
8332;DHT22;4203;48.144;14.118;2023-07-24T12:59:59;33.00;97.10
8332;DHT22;4203;48.144;14.118;2023-07-24T13:02:26;32.90;95.60
8332;DHT22;4203;48.144;14.118;2023-07-24T13:04:56;33.00;96.00
8332;DHT22;4203;48.144;14.118;2023-07-24T13:07:24;32.90;93.80
8332;DHT22;4203;48.144;14.118;2023-07-24T13:09:52;33.10;99.50
8332;DHT22;4203;48.144;14.118;2023-07-24T13:12:19;33.50;97.60
8332;DHT22;4203;48.144;14.118;2023-07-24T13:14:46;33.80;97.60
8332;DHT22;4203;48.144;14.118;2023-07-24T13:17:13;34.10;97.80
8332;DHT22;4203;48.144;14.118;2023-07-24T13:19:41;34.30;96.10
8332;DHT22;4203;48.144;14.118;2023-07-24T13:22:08;34.10;96.60
8332;DHT22;4203;48.144;14.118;2023-07-24T13:24:40;33.70;95.40
8332;DHT22;4203;48.144;14.118;2023-07-24T13:27:07;33.40;94.60
8332;DHT22;4203;48.144;14.118;2023-07-24T13:29:34;33.20;98.00
8332;DHT22;4203;48.144;14.118;2023-07-24T13:32:02;33.10;95.20
8332;DHT22;4203;48.144;14.118;2023-07-24T13:34:29;33.30;98.30
8332;DHT22;4203;48.144;14.118;2023-07-24T13:36:56;33.20;96.30
8332;DHT22;4203;48.144;14.118;2023-07-24T13:39:26;32.70;92.70
8332;DHT22;4203;48.144;14.118;2023-07-24T13:41:56;32.50;96.70
8332;DHT22;4203;48.144;14.118;2023-07-24T13:44:23;32.30;95.50
8332;DHT22;4203;48.144;14.118;2023-07-24T13:46:50;32.20;95.00
8332;DHT22;4203;48.144;14.118;2023-07-24T13:49:17;32.30;94.80
8332;DHT22;4203;48.144;14.118;2023-07-24T13:51:44;32.40;98.00
8332;DHT22;4203;48.144;14.118;2023-07-24T13:54:12;32.60;95.30
8332;DHT22;4203;48.144;14.118;2023-07-24T13:56:39;32.50;96.50
8332;DHT22;4203;48.144;14.118;2023-07-24T13:59:08;32.50;97.00
8332;DHT22;4203;48.144;14.118;2023-07-24T14:01:35;32.70;96.80
8332;DHT22;4203;48.144;14.118;2023-07-24T14:04:02;33.00;96.20
8332;DHT22;4203;48.144;14.118;2023-07-24T14:06:29;33.40;95.80
8332;DHT22;4203;48.144;14.118;2023-07-24T14:08:57;33.60;95.50
8332;DHT22;4203;48.144;14.118;2023-07-24T14:11:24;33.50;94.60
8332;DHT22;4203;48.144;14.118;2023-07-24T14:13:53;33.50;95.90
8332;DHT22;4203;48.144;14.118;2023-07-24T14:16:21;33.40;94.40
8332;DHT22;4203;48.144;14.118;2023-07-24T14:18:49;33.10;96.30
8332;DHT22;4203;48.144;14.118;2023-07-24T14:21:16;32.60;95.10
8332;DHT22;4203;48.144;14.118;2023-07-24T14:23:43;32.30;94.40
8332;DHT22;4203;48.144;14.118;2023-07-24T14:26:10;32.00;93.20
8332;DHT22;4203;48.144;14.118;2023-07-24T14:28:38;31.50;94.70
8332;DHT22;4203;48.144;14.118;2023-07-24T14:31:05;31.30;97.00
8332;DHT22;4203;48.144;14.118;2023-07-24T14:33:33;31.00;96.90
8332;DHT22;4203;48.144;14.118;2023-07-24T14:36:01;30.70;96.80
8332;DHT22;4203;48.144;14.118;2023-07-24T14:38:28;30.50;95.20
8332;DHT22;4203;48.144;14.118;2023-07-24T14:40:56;30.30;97.30
8332;DHT22;4203;48.144;14.118;2023-07-24T14:43:23;30.20;96.90
8332;DHT22;4203;48.144;14.118;2023-07-24T14:45:50;30.10;97.20
8332;DHT22;4203;48.144;14.118;2023-07-24T14:48:17;30.00;97.70
8332;DHT22;4203;48.144;14.118;2023-07-24T14:50:46;29.90;97.10
8332;DHT22;4203;48.144;14.118;2023-07-24T14:53:13;29.70;98.20
8332;DHT22;4203;48.144;14.118;2023-07-24T14:55:41;29.50;97.60
8332;DHT22;4203;48.144;14.118;2023-07-24T14:58:08;29.30;97.10
8332;DHT22;4203;48.144;14.118;2023-07-24T15:00:36;29.10;97.80
8332;DHT22;4203;48.144;14.118;2023-07-24T15:03:03;28.90;96.70
8332;DHT22;4203;48.144;14.118;2023-07-24T15:05:30;28.70;98.10
8332;DHT22;4203;48.144;14.118;2023-07-24T15:07:59;28.40;97.80
8332;DHT22;4203;48.144;14.118;2023-07-24T15:10:26;28.10;97.80
8332;DHT22;4203;48.144;14.118;2023-07-24T15:12:54;28.00;97.30
8332;DHT22;4203;48.144;14.118;2023-07-24T15:15:21;27.80;96.70
8332;DHT22;4203;48.144;14.118;2023-07-24T15:17:48;27.70;97.90
8332;DHT22;4203;48.144;14.118;2023-07-24T15:20:16;27.50;99.10
8332;DHT22;4203;48.144;14.118;2023-07-24T15:22:43;27.30;98.70
8332;DHT22;4203;48.144;14.118;2023-07-24T15:25:12;27.10;98.80
8332;DHT22;4203;48.144;14.118;2023-07-24T15:27:40;26.90;99.40
8332;DHT22;4203;48.144;14.118;2023-07-24T15:30:08;26.70;99.90
8332;DHT22;4203;48.144;14.118;2023-07-24T15:32:35;26.40;99.90
8332;DHT22;4203;48.144;14.118;2023-07-24T15:35:03;26.10;99.90
8332;DHT22;4203;48.144;14.118;2023-07-24T15:37:30;25.80;99.90
8332;DHT22;4203;48.144;14.118;2023-07-24T15:39:58;25.60;99.90
8332;DHT22;4203;48.144;14.118;2023-07-24T15:42:27;25.30;99.90
8332;DHT22;4203;48.144;14.118;2023-07-24T15:44:54;25.00;99.90
8332;DHT22;4203;48.144;14.118;2023-07-24T15:47:21;24.60;99.90
8332;DHT22;4203;48.144;14.118;2023-07-24T15:49:49;24.20;99.90